Time,TemperatureF,DewpointF,PressureIn,WindDirection,WindDirectionDegrees,WindSpeedMPH,WindSpeedGustMPH,Humidity,HourlyPrecipIn,Conditions,Clouds,dailyrainin,SoftwareType,DateUTC
2013-04-13 00:02:00,44.0,36.0,30.02,ESE,116,0.0,1.0,74,0.00,,,0.00,,2013-04-13 05:02:00,
2013-04-13 00:12:00,44.0,36.0,30.02,ESE,116,0.0,1.0,74,0.00,,,0.00,,2013-04-13 05:12:00,
2013-04-13 00:22:00,43.0,36.0,30.02,ESE,116,0.0,0.0,75,0.00,,,0.00,,2013-04-13 05:22:00,
2013-04-13 00:32:00,43.0,36.0,30.03,NNE,30,0.0,2.0,77,0.00,,,0.00,,2013-04-13 05:32:00,
2013-04-13 00:43:00,43.0,36.0,30.03,NNE,30,0.0,2.0,77,0.00,,,0.00,,2013-04-13 05:43:00,
2013-04-13 00:52:00,43.0,38.0,30.03,NNE,30,0.0,1.0,82,0.00,,,0.00,,2013-04-13 05:52:00,
2013-04-13 01:02:00,42.0,37.0,30.04,SE,134,0.0,1.0,82,0.00,,,0.00,,2013-04-13 06:02:00,
2013-04-13 01:12:00,42.0,37.0,30.04,SE,134,0.0,1.0,82,0.00,,,0.00,,2013-04-13 06:12:00,
2013-04-13 01:23:00,42.0,37.0,30.05,SSE,148,0.0,1.0,81,0.00,,,0.00,,2013-04-13 06:23:00,
2013-04-13 01:34:00,42.0,36.0,30.05,SSE,148,0.0,0.0,80,0.00,,,0.00,,2013-04-13 06:34:00,
2013-04-13 01:46:00,42.0,36.0,30.05,SSE,148,0.0,0.0,80,0.00,,,0.00,,2013-04-13 06:46:00,
2013-04-13 01:53:00,43.0,38.0,30.05,SSE,148,0.0,0.0,81,0.00,,,0.00,,2013-04-13 06:53:00,
2013-04-13 02:05:00,43.0,38.0,30.05,SSE,148,0.0,0.0,82,0.00,,,0.00,,2013-04-13 07:05:00,
2013-04-13 02:14:00,43.0,38.0,30.05,SSE,148,0.0,0.0,82,0.00,,,0.00,,2013-04-13 07:14:00,
2013-04-13 02:23:00,42.0,37.0,30.05,SSE,148,0.0,0.0,83,0.00,,,0.00,,2013-04-13 07:23:00,
2013-04-13 02:34:00,42.0,37.0,30.04,SSE,148,0.0,0.0,83,0.00,,,0.00,,2013-04-13 07:34:00,
2013-04-13 02:44:00,42.0,37.0,30.04,SSE,148,0.0,0.0,83,0.00,,,0.00,,2013-04-13 07:44:00,
2013-04-13 02:54:00,41.0,37.0,30.04,SSE,148,0.0,0.0,84,0.00,,,0.00,,2013-04-13 07:54:00,
2013-04-13 03:06:00,41.0,37.0,30.04,SSE,148,0.0,0.0,85,0.00,,,0.00,,2013-04-13 08:06:00,
2013-04-13 03:15:00,41.0,37.0,30.04,SSE,148,0.0,0.0,85,0.00,,,0.00,,2013-04-13 08:15:00,
2013-04-13 03:25:00,40.0,36.0,30.03,SSE,148,0.0,0.0,86,0.00,,,0.00,,2013-04-13 08:25:00,
2013-04-13 03:34:00,40.0,37.0,30.04,SSE,148,0.0,0.0,88,0.00,,,0.00,,2013-04-13 08:34:00,
2013-04-13 03:45:00,40.0,37.0,30.04,SSE,148,0.0,0.0,88,0.00,,,0.00,,2013-04-13 08:45:00,
2013-04-13 03:53:00,39.0,36.0,30.04,SSE,148,0.0,0.0,88,0.00,,,0.00,,2013-04-13 08:53:00,
2013-04-13 04:05:00,39.0,36.0,30.05,SSE,148,0.0,0.0,90,0.00,,,0.00,,2013-04-13 09:05:00,
2013-04-13 04:14:00,39.0,36.0,30.05,SSE,148,0.0,0.0,90,0.00,,,0.00,,2013-04-13 09:14:00,
2013-04-13 04:24:00,38.0,35.0,30.05,SSE,148,0.0,0.0,90,0.00,,,0.00,,2013-04-13 09:24:00,
2013-04-13 04:36:00,38.0,36.0,30.05,SSE,148,0.0,0.0,91,0.00,,,0.00,,2013-04-13 09:36:00,
2013-04-13 04:49:00,38.0,36.0,30.05,SSE,148,0.0,0.0,91,0.00,,,0.00,,2013-04-13 09:49:00,
2013-04-13 05:15:00,38.0,36.0,30.04,SSE,148,0.0,0.0,92,0.00,,,0.00,,2013-04-13 10:15:00,
2013-04-13 05:24:00,38.0,36.0,30.04,SSE,148,0.0,0.0,92,0.00,,,0.00,,2013-04-13 10:24:00,
2013-04-13 05:36:00,38.0,36.0,30.04,SSE,148,0.0,0.0,92,0.00,,,0.00,,2013-04-13 10:36:00,
2013-04-13 05:45:00,38.0,36.0,30.04,SSE,148,0.0,0.0,92,0.00,,,0.00,,2013-04-13 10:45:00,
2013-04-13 05:53:00,39.0,37.0,30.05,SSE,148,0.0,0.0,93,0.00,,,0.00,,2013-04-13 10:53:00,
2013-04-13 06:05:00,39.0,37.0,30.04,SSE,148,0.0,0.0,92,0.00,,,0.00,,2013-04-13 11:05:00,
2013-04-13 06:13:00,39.0,37.0,30.04,SSE,148,0.0,0.0,92,0.00,,,0.00,,2013-04-13 11:13:00,
2013-04-13 06:23:00,39.0,37.0,30.05,SSE,148,0.0,0.0,92,0.00,,,0.00,,2013-04-13 11:23:00,
2013-04-13 06:44:00,39.0,37.0,30.06,SSE,148,0.0,0.0,92,0.00,,,0.00,,2013-04-13 11:44:00,
2013-04-13 06:53:00,39.0,37.0,30.06,SSE,148,0.0,0.0,93,0.00,,,0.00,,2013-04-13 11:53:00,
2013-04-13 07:08:00,39.0,37.0,30.06,SE,134,0.0,1.0,92,0.00,,,0.00,,2013-04-13 12:08:00,
2013-04-13 07:15:00,39.0,37.0,30.06,SE,134,0.0,1.0,92,0.00,,,0.00,,2013-04-13 12:15:00,
2013-04-13 07:24:00,39.0,37.0,30.07,SE,134,0.0,1.0,92,0.00,,,0.00,,2013-04-13 12:24:00,
2013-04-13 07:35:00,38.0,36.0,30.07,SE,134,0.0,1.0,92,0.00,,,0.00,,2013-04-13 12:35:00,
2013-04-13 07:46:00,38.0,36.0,30.07,SE,134,0.0,1.0,92,0.00,,,0.00,,2013-04-13 12:46:00,
2013-04-13 08:05:00,40.0,38.0,30.07,SE,134,0.0,1.0,92,0.00,,,0.00,,2013-04-13 13:05:00,
2013-04-13 08:15:00,40.0,38.0,30.07,SE,134,0.0,1.0,92,0.00,,,0.00,,2013-04-13 13:15:00,
2013-04-13 08:26:00,43.0,39.0,30.07,SE,135,0.0,1.0,87,0.00,,,0.00,,2013-04-13 13:26:00,
2013-04-13 08:34:00,45.0,39.0,30.07,WSW,256,0.0,1.0,80,0.00,,,0.00,,2013-04-13 13:34:00,
2013-04-13 08:47:00,45.0,39.0,30.07,WSW,256,0.0,1.0,80,0.00,,,0.00,,2013-04-13 13:47:00,
2013-04-13 08:53:00,47.0,41.0,30.07,SW,232,0.0,3.0,78,0.00,,,0.00,,2013-04-13 13:53:00,
2013-04-13 09:04:00,49.0,39.0,30.08,SSE,157,3.0,6.0,68,0.00,,,0.00,,2013-04-13 14:04:00,
2013-04-13 09:14:00,49.0,39.0,30.08,SSE,157,3.0,6.0,68,0.00,,,0.00,,2013-04-13 14:14:00,
2013-04-13 09:23:00,50.0,38.0,30.08,ESE,105,3.0,11.0,64,0.00,,,0.00,,2013-04-13 14:23:00,
2013-04-13 09:45:00,50.0,38.0,30.08,SE,129,1.0,8.0,63,0.00,,,0.00,,2013-04-13 14:45:00,
2013-04-13 09:54:00,51.0,38.0,30.08,SSE,168,2.0,5.0,61,0.00,,,0.00,,2013-04-13 14:54:00,
2013-04-13 10:04:00,53.0,38.0,30.07,WSW,252,1.0,4.0,57,0.00,,,0.00,,2013-04-13 15:04:00,
2013-04-13 10:14:00,53.0,38.0,30.07,WSW,252,1.0,4.0,57,0.00,,,0.00,,2013-04-13 15:14:00,
2013-04-13 10:28:00,55.0,39.0,30.07,SW,217,2.0,4.0,55,0.00,,,0.00,,2013-04-13 15:28:00,
2013-04-13 10:35:00,56.0,39.0,30.07,SE,134,2.0,5.0,53,0.00,,,0.00,,2013-04-13 15:35:00,
2013-04-13 10:44:00,56.0,39.0,30.07,SE,134,2.0,5.0,53,0.00,,,0.00,,2013-04-13 15:44:00,
2013-04-13 10:54:00,56.0,38.0,30.07,ENE,78,1.0,3.0,51,0.00,,,0.00,,2013-04-13 15:54:00,
2013-04-13 11:05:00,57.0,38.0,30.07,NE,54,1.0,5.0,49,0.00,,,0.00,,2013-04-13 16:05:00,
2013-04-13 11:14:00,57.0,38.0,30.07,NE,54,1.0,5.0,49,0.00,,,0.00,,2013-04-13 16:14:00,
2013-04-13 11:24:00,58.0,38.0,30.07,ESE,115,1.0,4.0,48,0.00,,,0.00,,2013-04-13 16:24:00,
2013-04-13 11:35:00,60.0,40.0,30.07,NNE,30,1.0,6.0,47,0.00,,,0.00,,2013-04-13 16:35:00,
2013-04-13 11:45:00,60.0,40.0,30.07,NNE,30,1.0,6.0,47,0.00,,,0.00,,2013-04-13 16:45:00,
2013-04-13 11:53:00,60.0,39.0,30.07,SE,137,1.0,5.0,45,0.00,,,0.00,,2013-04-13 16:53:00,
2013-04-13 12:06:00,60.0,38.0,30.06,North,351,1.0,3.0,44,0.00,,,0.00,,2013-04-13 17:06:00,
2013-04-13 12:20:00,60.0,38.0,30.06,North,351,1.0,3.0,44,0.00,,,0.00,,2013-04-13 17:20:00,
2013-04-13 12:37:00,61.0,40.0,30.05,ENE,74,2.0,6.0,46,0.00,,,0.00,,2013-04-13 17:37:00,
2013-04-13 12:43:00,61.0,40.0,30.05,ENE,74,2.0,6.0,46,0.00,,,0.00,,2013-04-13 17:43:00,
2013-04-13 12:57:00,61.0,38.0,30.04,SSE,160,1.0,4.0,43,0.00,,,0.00,,2013-04-13 17:57:00,
2013-04-13 13:05:00,62.0,39.0,30.03,South,177,1.0,4.0,42,0.00,,,0.00,,2013-04-13 18:05:00,
2013-04-13 13:14:00,62.0,39.0,30.03,South,177,1.0,4.0,42,0.00,,,0.00,,2013-04-13 18:14:00,
2013-04-13 13:24:00,62.0,39.0,30.03,NW,305,1.0,5.0,43,0.00,,,0.00,,2013-04-13 18:24:00,
2013-04-13 13:33:00,61.0,40.0,30.03,NNE,29,1.0,6.0,45,0.00,,,0.00,,2013-04-13 18:33:00,
2013-04-13 13:42:00,61.0,40.0,30.03,NNE,29,1.0,6.0,45,0.00,,,0.00,,2013-04-13 18:42:00,
2013-04-13 13:52:00,62.0,40.0,30.01,ESE,119,1.0,5.0,44,0.00,,,0.00,,2013-04-13 18:52:00,
2013-04-13 14:03:00,63.0,41.0,30.01,NE,48,2.0,4.0,44,0.00,,,0.00,,2013-04-13 19:03:00,
2013-04-13 14:12:00,63.0,41.0,30.01,NE,48,2.0,4.0,44,0.00,,,0.00,,2013-04-13 19:12:00,
2013-04-13 14:22:00,62.0,40.0,30.00,ESE,114,0.0,5.0,44,0.00,,,0.00,,2013-04-13 19:22:00,
2013-04-13 14:32:00,62.0,40.0,29.99,ENE,58,2.0,6.0,44,0.00,,,0.00,,2013-04-13 19:32:00,
2013-04-13 14:42:00,62.0,40.0,29.99,ENE,58,2.0,6.0,44,0.00,,,0.00,,2013-04-13 19:42:00,
2013-04-13 14:52:00,62.0,40.0,29.98,ENE,77,2.0,4.0,45,0.00,,,0.00,,2013-04-13 19:52:00,
2013-04-13 15:02:00,63.0,41.0,29.97,ENE,63,1.0,7.0,44,0.00,,,0.00,,2013-04-13 20:02:00,
2013-04-13 15:12:00,63.0,41.0,29.97,ENE,63,1.0,7.0,44,0.00,,,0.00,,2013-04-13 20:12:00,
2013-04-13 15:22:00,66.0,42.0,29.96,ENE,76,2.0,7.0,42,0.00,,,0.00,,2013-04-13 20:22:00,
2013-04-13 15:32:00,66.0,41.0,29.95,SE,129,2.0,6.0,40,0.00,,,0.00,,2013-04-13 20:32:00,
2013-04-13 15:42:00,66.0,41.0,29.95,SE,129,2.0,6.0,40,0.00,,,0.00,,2013-04-13 20:42:00,
2013-04-13 15:52:00,68.0,43.0,29.93,ENE,74,2.0,6.0,40,0.00,,,0.00,,2013-04-13 20:52:00,
2013-04-13 16:02:00,69.0,43.0,29.94,SSW,200,3.0,8.0,39,0.00,,,0.00,,2013-04-13 21:02:00,
2013-04-13 16:12:00,69.0,43.0,29.94,SSW,200,3.0,8.0,39,0.00,,,0.00,,2013-04-13 21:12:00,
2013-04-13 16:22:00,69.0,42.0,29.92,ENE,57,3.0,7.0,37,0.00,,,0.00,,2013-04-13 21:22:00,
2013-04-13 16:32:00,68.0,43.0,29.92,NE,48,0.0,5.0,40,0.00,,,0.00,,2013-04-13 21:32:00,
2013-04-13 16:43:00,68.0,43.0,29.92,NE,48,0.0,5.0,40,0.00,,,0.00,,2013-04-13 21:43:00,
2013-04-13 16:52:00,67.0,42.0,29.91,East,98,3.0,8.0,40,0.00,,,0.00,,2013-04-13 21:52:00,
2013-04-13 17:03:00,68.0,42.0,29.91,SE,129,4.0,6.0,39,0.00,,,0.00,,2013-04-13 22:03:00,
2013-04-13 17:12:00,68.0,42.0,29.91,SE,129,4.0,6.0,39,0.00,,,0.00,,2013-04-13 22:12:00,
2013-04-13 17:22:00,68.0,43.0,29.90,SE,124,1.0,8.0,40,0.00,,,0.00,,2013-04-13 22:22:00,
2013-04-13 17:33:00,67.0,43.0,29.89,SE,131,4.0,10.0,41,0.00,,,0.00,,2013-04-13 22:33:00,
2013-04-13 17:42:00,67.0,43.0,29.89,SE,131,4.0,10.0,41,0.00,,,0.00,,2013-04-13 22:42:00,
2013-04-13 17:52:00,68.0,43.0,29.88,ESE,118,4.0,11.0,41,0.00,,,0.00,,2013-04-13 22:52:00,
2013-04-13 18:02:00,68.0,44.0,29.88,SE,125,3.0,9.0,42,0.00,,,0.00,,2013-04-13 23:02:00,
2013-04-13 18:12:00,68.0,44.0,29.88,SE,125,3.0,9.0,42,0.00,,,0.00,,2013-04-13 23:12:00,
2013-04-13 18:22:00,68.0,43.0,29.87,SE,145,8.0,15.0,40,0.00,,,0.00,,2013-04-13 23:22:00,
2013-04-13 18:32:00,67.0,44.0,29.86,SE,135,3.0,12.0,43,0.00,,,0.00,,2013-04-13 23:32:00,
2013-04-13 18:42:00,67.0,44.0,29.86,SE,135,3.0,12.0,43,0.00,,,0.00,,2013-04-13 23:42:00,
2013-04-13 18:52:00,66.0,43.0,29.86,SSE,166,5.0,9.0,43,0.00,,,0.00,,2013-04-13 23:52:00,
2013-04-13 19:02:00,66.0,44.0,29.87,ESE,123,3.0,8.0,45,0.00,,,0.00,,2013-04-14 00:02:00,
2013-04-13 19:12:00,66.0,44.0,29.87,ESE,123,3.0,8.0,45,0.00,,,0.00,,2013-04-14 00:12:00,
2013-04-13 19:22:00,65.0,44.0,29.87,SE,136,3.0,9.0,46,0.00,,,0.00,,2013-04-14 00:22:00,
2013-04-13 19:32:00,65.0,44.0,29.86,SSE,148,2.0,6.0,47,0.00,,,0.00,,2013-04-14 00:32:00,
2013-04-13 19:42:00,65.0,44.0,29.86,SSE,148,2.0,6.0,47,0.00,,,0.00,,2013-04-14 00:42:00,
2013-04-13 19:52:00,64.0,44.0,29.85,SE,145,1.0,4.0,48,0.00,,,0.00,,2013-04-14 00:52:00,
2013-04-13 20:02:00,63.0,44.0,29.85,East,100,1.0,4.0,50,0.00,,,0.00,,2013-04-14 01:02:00,
2013-04-13 20:12:00,63.0,44.0,29.85,East,100,1.0,4.0,50,0.00,,,0.00,,2013-04-14 01:12:00,
2013-04-13 20:22:00,62.0,44.0,29.85,ENE,76,2.0,5.0,51,0.00,,,0.00,,2013-04-14 01:22:00,
2013-04-13 20:32:00,61.0,44.0,29.85,ESE,103,2.0,5.0,53,0.00,,,0.00,,2013-04-14 01:32:00,
2013-04-13 20:42:00,61.0,44.0,29.85,ESE,103,2.0,5.0,53,0.00,,,0.00,,2013-04-14 01:42:00,
2013-04-13 20:52:00,61.0,45.0,29.85,SE,130,2.0,7.0,55,0.00,,,0.00,,2013-04-14 01:52:00,
2013-04-13 21:02:00,60.0,45.0,29.85,ENE,78,2.0,6.0,58,0.00,,,0.00,,2013-04-14 02:02:00,
2013-04-13 21:12:00,60.0,45.0,29.85,ENE,78,2.0,6.0,58,0.00,,,0.00,,2013-04-14 02:12:00,
2013-04-13 21:22:00,60.0,46.0,29.86,ESE,113,3.0,7.0,59,0.00,,,0.00,,2013-04-14 02:22:00,
2013-04-13 21:32:00,59.0,45.0,29.86,East,89,3.0,8.0,60,0.00,,,0.00,,2013-04-14 02:32:00,
2013-04-13 21:42:00,59.0,45.0,29.86,East,89,3.0,8.0,60,0.00,,,0.00,,2013-04-14 02:42:00,
2013-04-13 21:52:00,59.0,46.0,29.86,East,95,3.0,6.0,62,0.00,,,0.00,,2013-04-14 02:52:00,
2013-04-13 22:02:00,58.0,46.0,29.86,ESE,110,2.0,7.0,64,0.00,,,0.00,,2013-04-14 03:02:00,
2013-04-13 22:12:00,58.0,46.0,29.86,ESE,110,2.0,7.0,64,0.00,,,0.00,,2013-04-14 03:12:00,
2013-04-13 22:22:00,57.0,46.0,29.87,ESE,111,1.0,4.0,66,0.00,,,0.00,,2013-04-14 03:22:00,
2013-04-13 22:33:00,57.0,46.0,29.88,ESE,104,0.0,4.0,67,0.00,,,0.00,,2013-04-14 03:33:00,
2013-04-13 22:42:00,57.0,46.0,29.88,ESE,104,0.0,4.0,67,0.00,,,0.00,,2013-04-14 03:42:00,
2013-04-13 22:53:00,57.0,47.0,29.88,ESE,106,1.0,4.0,68,0.00,,,0.00,,2013-04-14 03:53:00,
2013-04-13 23:02:00,56.0,46.0,29.88,ESE,117,2.0,4.0,68,0.00,,,0.00,,2013-04-14 04:02:00,
2013-04-13 23:12:00,56.0,46.0,29.88,ESE,117,2.0,4.0,68,0.00,,,0.00,,2013-04-14 04:12:00,
2013-04-13 23:23:00,56.0,46.0,29.88,ESE,119,1.0,4.0,68,0.00,,,0.00,,2013-04-14 04:23:00,
2013-04-13 23:32:00,56.0,46.0,29.88,ESE,120,2.0,5.0,69,0.00,,,0.00,,2013-04-14 04:32:00,
2013-04-13 23:42:00,56.0,46.0,29.88,ESE,120,2.0,5.0,69,0.00,,,0.00,,2013-04-14 04:42:00,
2013-04-13 23:52:00,56.0,46.0,29.88,SE,126,2.0,6.0,70,0.00,,,0.00,,2013-04-14 04:52:00,